Time;durP1;ratioP1;P1;durP2;ratioP2;P2;SDS_P1;SDS_P2;PMS_P1;PMS_P2;Temp;Humidity;BMP_temperature;BMP_pressure;BME280_temperature;BME280_humidity;BME280_pressure;Samples;Min_cycle;Max_cycle;Signal;HPM_P1;HPM_P2
2023/06/03 00:01:47;;;;;;;14.10;7.35;;;;;;;13.73;100.00;102020.47;5279813;28;20039;-76
2023/06/03 00:04:21;;;;;;;13.05;7.80;;;;;;;13.68;100.00;102020.88;5278066;28;20120;-76
2023/06/03 00:06:52;;;;;;;16.45;7.18;;;;;;;13.64;100.00;102021.25;5278567;28;20036;-76
2023/06/03 00:09:24;;;;;;;16.38;7.57;;;;;;;13.57;100.00;102020.97;5285660;28;20512;-76
2023/06/03 00:11:55;;;;;;;13.95;7.43;;;;;;;13.50;100.00;102017.09;5278827;28;20397;-77
2023/06/03 00:14:26;;;;;;;18.98;7.10;;;;;;;13.43;100.00;102017.66;5278659;28;20028;-77
2023/06/03 00:16:58;;;;;;;14.40;6.95;;;;;;;13.45;100.00;102014.84;5280908;28;20042;-76
2023/06/03 00:19:29;;;;;;;13.43;7.18;;;;;;;13.46;100.00;102018.34;5281841;28;20070;-76
2023/06/03 00:22:02;;;;;;;12.50;7.03;;;;;;;13.36;100.00;102021.00;5286640;28;20122;-76
2023/06/03 00:24:33;;;;;;;15.45;8.15;;;;;;;13.43;100.00;102023.00;5283629;28;20025;-76
2023/06/03 00:27:05;;;;;;;14.35;7.20;;;;;;;13.36;100.00;102026.34;5278513;28;20028;-76
2023/06/03 00:29:36;;;;;;;13.85;7.70;;;;;;;13.35;100.00;102025.47;5277224;28;20028;-76
2023/06/03 00:32:07;;;;;;;13.80;7.68;;;;;;;13.29;100.00;102026.00;5285974;28;20032;-76
2023/06/03 00:34:39;;;;;;;16.70;8.35;;;;;;;13.23;100.00;102030.03;5279842;28;20048;-76
2023/06/03 00:37:10;;;;;;;15.45;7.38;;;;;;;13.26;100.00;102031.59;5277465;28;20047;-76
2023/06/03 00:39:41;;;;;;;16.27;7.90;;;;;;;13.21;100.00;102017.75;5281525;28;20075;-77
2023/06/03 00:42:12;;;;;;;19.55;8.38;;;;;;;13.19;100.00;102015.19;5285859;28;20028;-77
2023/06/03 00:44:44;;;;;;;18.75;8.15;;;;;;;13.13;100.00;102012.19;5282465;28;20074;-77
2023/06/03 00:47:17;;;;;;;13.40;8.25;;;;;;;13.17;100.00;102022.53;5277424;28;20032;-76
2023/06/03 00:49:49;;;;;;;16.42;7.97;;;;;;;13.04;100.00;102028.09;5280490;28;20051;-76
2023/06/03 00:52:23;;;;;;;12.82;7.30;;;;;;;12.98;100.00;102025.91;5278779;28;20385;-77
2023/06/03 00:54:55;;;;;;;22.70;8.48;;;;;;;13.07;100.00;102023.44;5278878;28;20108;-76
2023/06/03 00:57:26;;;;;;;16.67;8.07;;;;;;;13.03;100.00;102017.50;5280589;28;20111;-76
2023/06/03 00:59:58;;;;;;;15.60;8.15;;;;;;;13.00;100.00;102018.59;5281211;28;20028;-76
2023/06/03 01:02:29;;;;;;;18.20;7.85;;;;;;;13.01;100.00;102019.47;5276164;28;20028;-76
2023/06/03 01:05:03;;;;;;;15.00;8.05;;;;;;;12.93;100.00;102021.94;5283118;28;20388;-76
2023/06/03 01:08:01;;;;;;;16.70;8.27;;;;;;;13.01;100.00;102022.13;5277927;28;20416;-76
2023/06/03 01:10:49;;;;;;;20.02;8.15;;;;;;;12.95;100.00;102017.28;5281685;28;20055;-76
2023/06/03 01:13:31;;;;;;;22.45;8.23;;;;;;;12.86;100.00;102021.59;5277360;28;20517;-75
2023/06/03 01:16:04;;;;;;;15.55;8.10;;;;;;;12.76;100.00;102020.66;5277809;28;20414;-76
2023/06/03 01:18:37;;;;;;;17.05;7.72;;;;;;;12.75;100.00;102021.66;5282785;28;20035;-76
2023/06/03 01:21:12;;;;;;;13.48;7.68;;;;;;;12.74;100.00;102019.94;5276036;28;20033;-75
2023/06/03 01:23:45;;;;;;;15.68;8.25;;;;;;;12.64;100.00;102026.06;5282796;28;20397;-75
2023/06/03 01:26:16;;;;;;;14.85;7.68;;;;;;;12.63;100.00;102013.66;5279938;28;20024;-75
2023/06/03 01:28:49;;;;;;;15.23;7.55;;;;;;;12.60;100.00;102021.06;5275159;28;20505;-75
2023/06/03 01:31:21;;;;;;;17.17;8.40;;;;;;;12.64;100.00;102017.16;5276766;28;20032;-75
2023/06/03 01:33:52;;;;;;;14.82;7.97;;;;;;;12.64;100.00;102020.72;5276595;28;20024;-74
2023/06/03 01:36:24;;;;;;;17.25;7.90;;;;;;;12.60;100.00;102018.41;5278804;28;20512;-75
2023/06/03 01:38:56;;;;;;;15.07;8.00;;;;;;;12.55;100.00;102024.16;5285588;28;20390;-74
2023/06/03 01:41:27;;;;;;;14.63;7.32;;;;;;;12.46;100.00;102016.84;5277059;28;20114;-75
2023/06/03 01:43:59;;;;;;;18.30;7.85;;;;;;;12.50;100.00;102018.31;5281410;28;20440;-74
2023/06/03 01:46:30;;;;;;;18.48;8.60;;;;;;;12.43;100.00;102014.44;5276486;28;20025;-75
2023/06/03 01:49:02;;;;;;;14.60;8.27;;;;;;;12.42;100.00;102020.78;5282183;28;20020;-74
2023/06/03 01:51:34;;;;;;;14.20;8.15;;;;;;;12.45;100.00;102021.38;5277576;28;20085;-75
2023/06/03 01:54:06;;;;;;;16.55;7.60;;;;;;;12.40;100.00;102020.06;5280786;28;20377;-75
2023/06/03 01:56:37;;;;;;;13.30;7.28;;;;;;;12.36;100.00;102023.94;5281723;28;20056;-76
2023/06/03 01:59:08;;;;;;;18.30;7.90;;;;;;;12.40;100.00;102020.91;5278152;28;20033;-75
2023/06/03 02:01:43;;;;;;;15.85;7.20;;;;;;;12.33;100.00;102014.34;5278069;28;20036;-74
2023/06/03 02:04:15;;;;;;;12.50;7.80;;;;;;;12.30;100.00;102012.75;5276496;28;20027;-75
2023/06/03 02:06:55;;;;;;;16.90;7.95;;;;;;;12.33;100.00;102016.19;5280994;28;20591;-74
2023/06/03 02:09:28;;;;;;;12.65;7.53;;;;;;;12.33;100.00;102018.84;5280951;28;20033;-75
2023/06/03 02:12:00;;;;;;;19.02;8.07;;;;;;;12.28;100.00;102021.91;5277134;28;20025;-74
2023/06/03 02:14:32;;;;;;;12.35;7.32;;;;;;;12.31;100.00;102016.31;5277134;28;20025;-74
2023/06/03 02:17:04;;;;;;;12.05;7.10;;;;;;;12.32;100.00;102012.63;5279128;28;20365;-75
2023/06/03 02:19:35;;;;;;;14.00;7.80;;;;;;;12.25;100.00;102016.78;5287630;28;20047;-75
2023/06/03 02:22:07;;;;;;;16.10;7.55;;;;;;;12.29;100.00;102020.94;5282941;28;20032;-75
2023/06/03 02:24:38;;;;;;;11.27;7.18;;;;;;;12.27;100.00;102012.16;5283302;28;20025;-76
2023/06/03 02:27:10;;;;;;;16.27;8.18;;;;;;;12.23;100.00;102021.41;5280726;28;20047;-76
2023/06/03 02:29:42;;;;;;;13.70;6.68;;;;;;;12.25;100.00;102016.78;5284593;28;20670;-74
2023/06/03 02:32:14;;;;;;;15.82;7.20;;;;;;;12.18;100.00;102020.94;5281917;28;20501;-75
2023/06/03 02:34:47;;;;;;;14.77;6.80;;;;;;;12.23;100.00;102016.06;5287402;28;20028;-74
2023/06/03 02:37:18;;;;;;;11.35;7.43;;;;;;;12.20;100.00;102016.31;5279058;28;20032;-76
2023/06/03 02:39:50;;;;;;;26.50;19.30;;;;;;;12.16;100.00;102022.91;5282692;28;20021;-76
2023/06/03 02:42:21;;;;;;;13.23;8.20;;;;;;;12.11;100.00;102017.91;5285492;28;20147;-75
2023/06/03 02:44:52;;;;;;;14.85;7.97;;;;;;;12.15;100.00;102021.19;5285380;28;20032;-74
2023/06/03 02:47:23;;;;;;;15.63;7.32;;;;;;;12.15;100.00;102021.19;5280051;28;20090;-75
2023/06/03 02:49:56;;;;;;;9.02;6.10;;;;;;;12.09;100.00;102022.53;5280199;28;20524;-75
2023/06/03 02:52:27;;;;;;;11.35;7.55;;;;;;;12.08;100.00;102024.38;5279914;28;20016;-75
2023/06/03 02:54:58;;;;;;;13.35;7.60;;;;;;;12.03;100.00;102026.56;5281852;28;20031;-75
2023/06/03 02:57:30;;;;;;;16.58;10.15;;;;;;;12.03;100.00;102023.88;5289431;28;20044;-75
2023/06/03 03:00:01;;;;;;;17.52;10.88;;;;;;;12.04;100.00;102024.72;5280581;28;20031;-75
2023/06/03 03:02:33;;;;;;;14.52;8.25;;;;;;;11.93;100.00;102024.75;5280842;28;20119;-75
2023/06/03 03:05:04;;;;;;;9.30;7.78;;;;;;;11.96;100.00;102025.34;5281550;28;20020;-75
2023/06/03 03:07:36;;;;;;;12.15;7.30;;;;;;;11.92;100.00;102023.88;5279479;28;20485;-76
2023/06/03 03:10:08;;;;;;;16.85;7.80;;;;;;;11.88;100.00;102017.88;5281247;28;20069;-75
2023/06/03 03:12:39;;;;;;;14.80;7.10;;;;;;;11.85;100.00;102015.50;5282381;28;20075;-75
2023/06/03 03:15:11;;;;;;;12.93;7.25;;;;;;;11.86;100.00;102019.00;5282754;28;20078;-75
2023/06/03 03:17:42;;;;;;;10.85;7.15;;;;;;;11.91;100.00;102028.38;5282674;28;20504;-75
2023/06/03 03:20:14;;;;;;;17.75;7.47;;;;;;;11.84;100.00;102021.78;5279017;28;20468;-74
2023/06/03 03:22:45;;;;;;;12.10;6.57;;;;;;;11.84;100.00;102024.47;5285851;28;20074;-74
2023/06/03 03:25:17;;;;;;;10.43;6.78;;;;;;;11.80;100.00;102030.16;5279329;28;20487;-74
2023/06/03 03:27:48;;;;;;;10.75;6.15;;;;;;;11.79;100.00;102033.81;5280728;28;20066;-73
2023/06/03 03:30:19;;;;;;;11.82;6.68;;;;;;;11.77;100.00;102036.63;5278688;28;20132;-74
2023/06/03 03:32:51;;;;;;;9.23;6.20;;;;;;;11.76;100.00;102036.72;5283758;28;20023;-74
2023/06/03 03:35:22;;;;;;;12.32;6.75;;;;;;;11.76;100.00;102034.91;5279562;28;20032;-74
2023/06/03 03:38:02;;;;;;;12.48;6.88;;;;;;;11.77;100.00;102035.78;5280144;28;20448;-69
2023/06/03 03:40:36;;;;;;;11.27;6.38;;;;;;;11.72;100.00;102034.28;5282430;28;20477;-69
2023/06/03 03:43:15;;;;;;;10.25;6.53;;;;;;;11.75;100.00;102035.91;5282778;28;20055;-69
2023/06/03 03:45:46;;;;;;;13.23;7.13;;;;;;;11.69;100.00;102031.03;5281172;28;20032;-69
2023/06/03 03:48:20;;;;;;;11.68;6.70;;;;;;;11.73;100.00;102037.84;5282707;28;20589;-69
2023/06/03 03:50:52;;;;;;;11.07;6.53;;;;;;;11.70;100.00;102041.59;5279759;28;20024;-70
2023/06/03 03:53:35;;;;;;;10.85;6.53;;;;;;;11.71;100.00;102035.28;5282628;28;20060;-70
2023/06/03 03:56:07;;;;;;;11.75;7.20;;;;;;;11.65;100.00;102040.25;5278420;28;20526;-70
2023/06/03 03:58:40;;;;;;;12.05;6.68;;;;;;;11.66;100.00;102037.47;5281855;28;20021;-70
2023/06/03 04:01:15;;;;;;;9.13;6.70;;;;;;;11.69;100.00;102039.03;5281946;28;20393;-70
2023/06/03 04:03:48;;;;;;;15.25;6.82;;;;;;;11.71;100.00;102040.63;5283600;28;20375;-71
2023/06/03 04:06:37;;;;;;;8.18;6.75;;;;;;;11.77;100.00;102036.63;5281280;28;20036;-70
2023/06/03 04:09:10;;;;;;;13.13;7.50;;;;;;;11.71;100.00;102037.97;5278284;28;20051;-70
2023/06/03 04:11:43;;;;;;;10.27;7.00;;;;;;;11.68;100.00;102040.88;5278676;28;20493;-70
2023/06/03 04:14:16;;;;;;;14.88;6.70;;;;;;;11.72;100.00;102034.28;5279038;28;20109;-71
2023/06/03 04:16:55;;;;;;;9.77;6.82;;;;;;;11.78;100.00;102037.47;5282386;28;20024;-71
2023/06/03 04:19:36;;;;;;;9.30;6.53;;;;;;;11.75;100.00;102041.25;5278219;28;20186;-70
2023/06/03 04:22:10;;;;;;;12.40;6.97;;;;;;;11.76;100.00;102045.59;5276665;28;20031;-71
2023/06/03 04:24:42;;;;;;;9.00;7.07;;;;;;;11.78;100.00;102048.16;5281126;28;20027;-72
2023/06/03 04:27:14;;;;;;;12.43;7.45;;;;;;;11.80;100.00;102046.22;5277480;28;20401;-70
2023/06/03 04:29:46;;;;;;;13.32;7.32;;;;;;;11.86;100.00;102045.72;5282605;28;20036;-70
2023/06/03 04:32:17;;;;;;;11.63;7.15;;;;;;;11.89;100.00;102046.34;5281003;28;20046;-71
2023/06/03 04:34:51;;;;;;;11.02;7.40;;;;;;;11.86;100.00;102051.09;5279429;28;20028;-70
2023/06/03 04:37:23;;;;;;;11.25;7.57;;;;;;;11.89;100.00;102054.38;5280859;28;20047;-70
2023/06/03 04:39:54;;;;;;;11.55;7.25;;;;;;;11.95;100.00;102045.03;5277581;28;20428;-69
2023/06/03 04:42:26;;;;;;;11.73;7.57;;;;;;;11.95;100.00;102053.06;5281665;28;20038;-71
2023/06/03 04:44:58;;;;;;;11.60;7.40;;;;;;;12.05;100.00;102054.03;5281681;28;20035;-70
2023/06/03 04:47:29;;;;;;;13.98;7.38;;;;;;;12.02;100.00;102051.59;5280453;28;20036;-70
2023/06/03 04:50:04;;;;;;;9.88;7.97;;;;;;;12.08;100.00;102052.94;5282771;28;20497;-70
2023/06/03 04:52:36;;;;;;;11.45;7.50;;;;;;;12.09;100.00;102050.13;5278751;28;20035;-70
2023/06/03 04:55:07;;;;;;;11.60;8.02;;;;;;;12.12;100.00;102054.38;5281434;28;20024;-70
2023/06/03 04:57:39;;;;;;;12.18;7.13;;;;;;;12.11;100.00;102050.00;5287487;28;20031;-71
2023/06/03 05:00:11;;;;;;;12.13;7.20;;;;;;;12.20;100.00;102059.09;5280800;28;20020;-71
2023/06/03 05:02:44;;;;;;;12.38;6.45;;;;;;;12.30;100.00;102054.72;5278756;28;20024;-71
2023/06/03 05:05:16;;;;;;;8.52;6.88;;;;;;;12.26;100.00;102055.97;5283813;28;20028;-71
2023/06/03 05:07:47;;;;;;;10.68;6.47;;;;;;;12.32;100.00;102063.47;5287873;28;20035;-71
2023/06/03 05:10:18;;;;;;;13.35;6.90;;;;;;;12.41;100.00;102053.84;5278880;28;20055;-70
2023/06/03 05:12:50;;;;;;;10.88;5.93;;;;;;;12.45;100.00;102049.97;5282249;28;20027;-70
2023/06/03 05:15:21;;;;;;;9.15;5.72;;;;;;;12.44;100.00;102050.94;5278693;28;20489;-70
2023/06/03 05:17:52;;;;;;;11.82;5.88;;;;;;;12.51;100.00;102049.44;5282125;28;20052;-70
2023/06/03 05:20:24;;;;;;;7.82;5.72;;;;;;;12.61;100.00;102052.22;5279852;28;20089;-70
2023/06/03 05:22:56;;;;;;;9.75;5.65;;;;;;;12.65;100.00;102053.66;5279633;28;20095;-71
2023/06/03 05:25:27;;;;;;;10.05;5.72;;;;;;;12.67;100.00;102052.59;5278699;28;20024;-71
2023/06/03 05:27:58;;;;;;;9.82;5.35;;;;;;;12.75;100.00;102054.63;5282503;28;20197;-71
2023/06/03 05:30:30;;;;;;;8.00;5.03;;;;;;;12.75;100.00;102059.13;5276975;28;20420;-70
2023/06/03 05:33:01;;;;;;;8.70;5.13;;;;;;;12.82;100.00;102049.59;5277272;28;20032;-70
2023/06/03 05:35:32;;;;;;;8.55;4.47;;;;;;;12.90;100.00;102059.66;5282871;28;20028;-70
2023/06/03 05:38:05;;;;;;;7.18;4.50;;;;;;;12.91;100.00;102058.69;5280146;28;20036;-69
2023/06/03 05:40:37;;;;;;;6.05;4.57;;;;;;;12.93;100.00;102062.94;5285704;28;20044;-71
2023/06/03 05:43:08;;;;;;;7.30;4.63;;;;;;;13.03;100.00;102055.00;5280115;28;20024;-70
2023/06/03 05:45:40;;;;;;;7.07;5.10;;;;;;;13.03;100.00;102050.47;5282351;28;20058;-71
2023/06/03 05:48:11;;;;;;;6.28;4.03;;;;;;;13.14;100.00;102054.91;5281047;28;20031;-71
2023/06/03 05:50:51;;;;;;;8.77;4.10;;;;;;;13.24;100.00;102060.38;5282092;28;20044;-70
2023/06/03 05:53:26;;;;;;;8.70;4.00;;;;;;;13.28;100.00;102051.06;5288852;28;20039;-71
2023/06/03 05:55:57;;;;;;;6.53;4.10;;;;;;;13.38;100.00;102051.19;5280153;28;20039;-71
2023/06/03 05:58:28;;;;;;;5.32;3.72;;;;;;;13.42;100.00;102052.63;5289396;28;20035;-70
2023/06/03 06:01:00;;;;;;;8.90;4.38;;;;;;;13.51;100.00;102053.66;5286146;28;20031;-70
2023/06/03 06:03:31;;;;;;;10.73;3.90;;;;;;;13.60;100.00;102066.25;5289030;28;20024;-71
2023/06/03 06:06:02;;;;;;;5.70;3.70;;;;;;;13.69;100.00;102064.59;5285944;28;20539;-70
2023/06/03 06:08:34;;;;;;;6.90;3.72;;;;;;;13.75;100.00;102062.25;5283479;28;20031;-71
2023/06/03 06:11:05;;;;;;;7.03;4.10;;;;;;;13.95;100.00;102054.28;5286514;28;20520;-70
2023/06/03 06:13:36;;;;;;;6.50;4.10;;;;;;;14.07;100.00;102055.03;5282175;28;20089;-70
2023/06/03 06:16:08;;;;;;;9.70;3.47;;;;;;;14.31;100.00;102047.50;5285654;28;20117;-71
2023/06/03 06:18:40;;;;;;;6.63;3.45;;;;;;;14.53;100.00;102057.16;5285214;28;20019;-71
2023/06/03 06:21:11;;;;;;;6.90;3.55;;;;;;;14.78;100.00;102060.31;5284170;28;20027;-70
2023/06/03 06:23:43;;;;;;;7.57;4.15;;;;;;;15.01;100.00;102055.50;5290130;28;20478;-70
2023/06/03 06:26:16;;;;;;;5.47;3.40;;;;;;;15.22;100.00;102065.25;5281111;28;20426;-71
2023/06/03 06:28:47;;;;;;;8.50;3.30;;;;;;;15.53;100.00;102060.50;5283536;28;20028;-70
2023/06/03 06:31:18;;;;;;;8.15;3.70;;;;;;;15.75;100.00;102064.75;5285355;28;20492;-69
2023/06/03 06:33:50;;;;;;;8.98;3.38;;;;;;;16.06;100.00;102068.00;5282536;28;20123;-76
2023/06/03 06:36:41;;;;;;;6.85;3.30;;;;;;;16.41;100.00;102069.09;5290395;28;20048;-78
2023/06/03 06:39:34;;;;;;;4.75;3.17;;;;;;;16.65;100.00;102067.66;5287540;28;20033;-83
2023/06/03 06:42:17;;;;;;;5.55;3.65;;;;;;;16.87;100.00;102063.72;5285194;28;20474;-79
2023/06/03 06:44:50;;;;;;;9.82;3.08;;;;;;;17.18;100.00;102066.84;5286022;28;20036;-79
2023/06/03 06:47:24;;;;;;;5.25;2.75;;;;;;;17.38;100.00;102070.19;5292226;28;20024;-79
2023/06/03 06:49:57;;;;;;;3.72;2.67;;;;;;;17.63;100.00;102059.56;5303158;28;20166;-80
2023/06/03 06:52:29;;;;;;;6.57;2.95;;;;;;;17.91;100.00;102070.22;5288567;28;20055;-80
2023/06/03 06:55:01;;;;;;;8.82;2.63;;;;;;;18.20;100.00;102077.06;5290431;28;20039;-81
2023/06/03 06:57:35;;;;;;;5.13;2.72;;;;;;;18.26;100.00;102068.34;5293107;28;20116;-81
2023/06/03 07:00:07;;;;;;;8.75;2.65;;;;;;;18.59;100.00;102071.13;5291486;28;20106;-80
2023/06/03 07:02:40;;;;;;;6.00;2.58;;;;;;;18.77;100.00;102073.69;5286972;28;20035;-79
2023/06/03 07:05:12;;;;;;;6.15;2.60;;;;;;;19.01;100.00;102067.50;5299635;28;20052;-80
2023/06/03 07:07:43;;;;;;;6.60;2.78;;;;;;;19.25;100.00;102063.97;5295114;28;20067;-80
2023/06/03 07:10:21;;;;;;;6.10;2.65;;;;;;;19.54;100.00;102074.22;5297521;28;20020;-80
2023/06/03 07:12:53;;;;;;;6.80;2.88;;;;;;;19.62;100.00;102067.97;5291506;28;20017;-80
2023/06/03 07:15:24;;;;;;;4.47;2.28;;;;;;;19.79;100.00;102071.47;5287895;28;20086;-80
2023/06/03 07:17:57;;;;;;;6.32;2.40;;;;;;;19.88;100.00;102067.75;5293919;28;20028;-80
2023/06/03 07:20:38;;;;;;;6.80;2.40;;;;;;;20.34;100.00;102061.63;5292438;28;20290;-79
2023/06/03 07:23:19;;;;;;;6.53;2.40;;;;;;;20.44;100.00;102062.25;5289915;28;20375;-80
2023/06/03 07:25:52;;;;;;;7.95;2.33;;;;;;;20.68;100.00;102063.97;5285498;28;20016;-79
2023/06/03 07:28:37;;;;;;;7.03;3.00;;;;;;;20.89;100.00;102068.75;5292387;28;20032;-80
2023/06/03 07:31:10;;;;;;;5.25;2.10;;;;;;;21.03;100.00;102060.84;5290972;28;20016;-79
2023/06/03 07:33:52;;;;;;;5.53;2.38;;;;;;;21.46;100.00;102055.75;5290121;28;20091;-79
2023/06/03 07:36:26;;;;;;;4.40;1.80;;;;;;;21.57;100.00;102059.88;5293248;28;20042;-82
2023/06/03 07:39:02;;;;;;;3.45;2.03;;;;;;;21.77;100.00;102060.16;5293521;28;20035;-80
2023/06/03 07:41:45;;;;;;;8.43;2.15;;;;;;;21.93;100.00;102062.66;5290477;28;20028;-80
2023/06/03 07:44:47;;;;;;;4.45;1.77;;;;;;;22.31;99.18;102061.72;5289829;28;20027;-80
2023/06/03 07:47:19;;;;;;;6.00;1.65;;;;;;;22.30;91.20;102065.47;5288362;28;20029;-80
2023/06/03 07:49:50;;;;;;;4.55;1.65;;;;;;;22.57;91.26;102062.03;5287250;28;20504;-80
2023/06/03 07:52:22;;;;;;;5.00;1.73;;;;;;;22.82;91.03;102054.31;5290018;28;20107;-81
2023/06/03 07:54:53;;;;;;;6.22;1.88;;;;;;;22.85;84.52;102064.81;5285625;28;20016;-80
2023/06/03 07:57:24;;;;;;;4.72;2.03;;;;;;;22.99;82.70;102056.78;5285612;28;20063;-80
2023/06/03 07:59:56;;;;;;;3.78;1.75;;;;;;;23.27;80.38;102070.44;5288258;28;20032;-81
2023/06/03 08:02:27;;;;;;;3.17;1.80;;;;;;;23.21;78.92;102060.34;5285930;28;20078;-79
2023/06/03 08:05:00;;;;;;;10.23;1.88;;;;;;;23.45;77.57;102069.13;5290749;28;20034;-80
2023/06/03 08:07:32;;;;;;;3.28;1.70;;;;;;;23.65;74.38;102059.22;5290365;28;20078;-80
2023/06/03 08:10:04;;;;;;;4.57;1.65;;;;;;;23.72;72.08;102061.94;5290855;28;20036;-80
2023/06/03 08:12:36;;;;;;;3.08;1.30;;;;;;;23.88;69.50;102071.75;5287595;28;20062;-81
2023/06/03 08:15:24;;;;;;;4.47;1.80;;;;;;;24.13;69.34;102067.44;5289130;28;20086;-81
2023/06/03 08:17:56;;;;;;;3.53;1.20;;;;;;;24.09;65.43;102068.06;5292450;28;20040;-80
2023/06/03 08:20:28;;;;;;;3.47;1.35;;;;;;;24.35;65.05;102065.44;5289636;28;20165;-80
2023/06/03 08:22:59;;;;;;;3.78;1.33;;;;;;;24.52;62.62;102060.44;5289398;28;20028;-81
2023/06/03 08:25:31;;;;;;;4.80;1.38;;;;;;;24.71;61.64;102060.72;5296632;28;20088;-80
2023/06/03 08:28:02;;;;;;;5.22;1.42;;;;;;;24.72;59.39;102054.22;5303980;28;20036;-81
2023/06/03 08:30:34;;;;;;;3.00;1.23;;;;;;;24.88;59.12;102072.91;5302544;28;21347;-80
2023/06/03 08:33:05;;;;;;;7.40;1.25;;;;;;;25.20;58.54;102047.75;5304318;28;20030;-81
2023/06/03 08:35:36;;;;;;;4.18;1.15;;;;;;;25.38;56.97;102060.78;5299196;28;20081;-80
2023/06/03 08:38:08;;;;;;;4.28;1.40;;;;;;;25.32;54.27;102047.97;5302169;28;20115;-83
2023/06/03 08:40:47;;;;;;;1.65;1.10;;;;;;;25.68;54.48;102050.19;5300986;28;20040;-80
2023/06/03 08:43:21;;;;;;;5.00;1.45;;;;;;;25.92;53.84;102051.41;5292703;28;20060;-82
2023/06/03 08:46:06;;;;;;;4.03;1.20;;;;;;;26.00;52.76;102047.63;5292625;28;20044;-80
2023/06/03 08:49:00;;;;;;;7.72;1.42;;;;;;;26.14;53.16;102053.84;5289530;28;20036;-81
2023/06/03 08:51:38;;;;;;;1.55;1.08;;;;;;;26.46;50.85;102056.66;5292622;28;20028;-80
2023/06/03 08:54:17;;;;;;;4.25;1.30;;;;;;;26.29;49.83;102050.84;5290605;28;20024;-81
2023/06/03 08:57:00;;;;;;;3.30;1.20;;;;;;;26.64;50.45;102059.50;5296709;28;20040;-81
2023/06/03 08:59:32;;;;;;;2.05;1.00;;;;;;;26.19;46.13;102054.91;5289165;28;20028;-82
2023/06/03 09:02:05;;;;;;;6.00;1.55;;;;;;;26.41;46.43;102049.94;5289262;28;20035;-81
2023/06/03 09:04:38;;;;;;;3.72;1.55;;;;;;;26.55;47.41;102049.88;5287636;28;20393;-81
2023/06/03 09:07:11;;;;;;;5.13;1.30;;;;;;;26.58;45.65;102044.78;5287989;28;20032;-81
2023/06/03 09:09:43;;;;;;;3.17;1.10;;;;;;;26.63;43.56;102052.38;5295144;28;20030;-82
2023/06/03 09:12:14;;;;;;;6.50;1.20;;;;;;;26.77;44.74;102048.50;5295061;28;20024;-81
2023/06/03 09:14:47;;;;;;;3.17;1.10;;;;;;;26.88;41.94;102046.09;5289903;28;20288;-80
2023/06/03 09:17:18;;;;;;;4.55;1.02;;;;;;;27.17;42.67;102048.16;5295963;28;20032;-80
2023/06/03 09:19:50;;;;;;;5.10;1.15;;;;;;;27.06;42.23;102046.13;5292724;28;20035;-81
2023/06/03 09:22:23;;;;;;;3.33;1.13;;;;;;;27.16;39.33;102042.91;5288718;28;20024;-82
2023/06/03 09:24:54;;;;;;;3.63;1.13;;;;;;;27.29;39.02;102051.00;5298705;28;20024;-80
2023/06/03 09:27:25;;;;;;;8.00;1.60;;;;;;;27.47;38.34;102047.50;5290785;28;20035;-82
2023/06/03 09:29:58;;;;;;;4.57;1.40;;;;;;;27.71;40.60;102055.88;5290473;28;20032;-82
2023/06/03 09:32:35;;;;;;;3.15;1.10;;;;;;;27.85;37.44;102051.06;5294009;28;20036;-81
2023/06/03 09:35:07;;;;;;;2.35;1.08;;;;;;;27.76;36.38;102050.53;5292195;28;20084;-82
2023/06/03 09:37:57;;;;;;;4.50;1.35;;;;;;;28.24;38.08;102054.41;5291077;28;20076;-82
2023/06/03 09:40:30;;;;;;;2.75;1.00;;;;;;;28.04;35.14;102046.44;5290694;28;20085;-82
2023/06/03 09:43:09;;;;;;;6.15;1.15;;;;;;;28.25;35.94;102043.19;5293053;28;20092;-82
2023/06/03 09:45:40;;;;;;;2.83;1.10;;;;;;;28.43;33.21;102053.28;5289804;28;20020;-81
2023/06/03 09:48:12;;;;;;;2.05;0.90;;;;;;;28.47;32.12;102054.50;5290303;28;20064;-81
2023/06/03 09:50:49;;;;;;;4.32;1.13;;;;;;;28.57;31.85;102058.63;5289244;28;20036;-81
2023/06/03 09:53:20;;;;;;;2.05;0.95;;;;;;;28.25;33.18;102053.34;5298052;28;20033;-81
2023/06/03 09:55:52;;;;;;;3.42;0.93;;;;;;;28.64;33.23;102060.19;5292232;28;20088;-81
2023/06/03 09:58:23;;;;;;;4.40;1.02;;;;;;;28.87;31.48;102052.25;5297812;28;20505;-81
2023/06/03 10:00:56;;;;;;;4.63;1.50;;;;;;;28.82;32.96;102051.06;5291692;28;20028;-81
2023/06/03 10:03:27;;;;;;;1.75;1.10;;;;;;;28.53;30.24;102052.72;5290296;28;20073;-82
2023/06/03 10:06:16;;;;;;;5.20;1.13;;;;;;;28.60;30.97;102056.25;5295065;28;20570;-82
2023/06/03 10:08:47;;;;;;;2.67;0.98;;;;;;;28.48;30.06;102053.41;5294367;28;20028;-81
2023/06/03 10:11:19;;;;;;;2.05;0.73;;;;;;;28.58;30.03;102063.88;5293420;28;20043;-82
2023/06/03 10:14:04;;;;;;;2.20;0.90;;;;;;;29.00;29.94;102052.88;5293636;28;20024;-82
2023/06/03 10:16:35;;;;;;;5.10;1.55;;;;;;;28.92;29.13;102044.97;5293166;28;20072;-82
2023/06/03 10:19:20;;;;;;;4.03;1.27;;;;;;;29.01;28.07;102054.53;5305175;28;20031;-82
2023/06/03 10:21:51;;;;;;;4.28;1.20;;;;;;;29.27;28.51;102043.38;5301261;28;20028;-81
2023/06/03 10:24:26;;;;;;;3.75;1.10;;;;;;;29.62;28.90;102048.81;5299363;28;20100;-81
2023/06/03 10:26:57;;;;;;;5.47;3.53;;;;;;;29.41;27.09;102037.38;5298283;28;20020;-81
2023/06/03 10:29:32;;;;;;;2.03;1.00;;;;;;;29.47;27.08;102041.09;5296834;28;20073;-81
2023/06/03 10:32:06;;;;;;;7.13;1.03;;;;;;;29.77;28.94;102040.94;5290471;28;20299;-81
2023/06/03 10:34:42;;;;;;;2.63;0.88;;;;;;;29.95;28.11;102028.94;5293472;28;20020;-82
2023/06/03 10:37:14;;;;;;;2.90;0.90;;;;;;;29.55;25.76;102031.63;5292553;28;20515;-82
2023/06/03 10:39:45;;;;;;;1.83;0.98;;;;;;;29.83;27.19;102038.31;5296443;28;20039;-81
2023/06/03 10:42:17;;;;;;;3.17;1.13;;;;;;;29.74;27.14;102046.88;5298092;28;20107;-81
2023/06/03 10:44:49;;;;;;;1.95;0.80;;;;;;;30.23;28.11;102038.28;5300287;28;20035;-81
2023/06/03 10:47:25;;;;;;;4.75;0.88;;;;;;;30.33;27.24;102046.75;5294407;28;20032;-80
2023/06/03 10:50:11;;;;;;;5.15;1.15;;;;;;;30.56;27.49;102039.47;5300809;28;20522;-82
2023/06/03 10:53:04;;;;;;;1.67;0.90;;;;;;;31.05;26.44;102044.44;5293713;28;20773;-81
2023/06/03 10:55:54;;;;;;;2.75;0.90;;;;;;;30.77;26.08;102037.91;5298703;28;20080;-80
2023/06/03 10:58:28;;;;;;;3.67;0.75;;;;;;;29.95;24.31;102023.44;5301503;28;20020;-80
2023/06/03 11:01:06;;;;;;;3.35;1.23;;;;;;;30.04;25.81;102036.81;5294259;28;20096;-81
2023/06/03 11:03:52;;;;;;;3.80;0.90;;;;;;;30.42;26.67;102038.94;5301831;28;20032;-81
2023/06/03 11:06:25;;;;;;;2.72;1.05;;;;;;;30.36;24.78;102034.41;5294459;28;20086;-81
2023/06/03 11:09:04;;;;;;;2.33;0.65;;;;;;;30.66;24.11;102036.06;5302867;28;20052;-81
2023/06/03 11:11:41;;;;;;;3.03;0.60;;;;;;;30.78;23.92;102036.81;5295300;28;20032;-81
2023/06/03 11:14:38;;;;;;;5.10;0.98;;;;;;;31.13;24.08;102033.00;5294832;28;20028;-82
2023/06/03 11:17:10;;;;;;;;;;;;;;;32.12;25.03;102033.22;5305660;28;20110;-81
2023/06/03 11:19:45;;;;;;;2.75;1.13;;;;;;;31.29;23.64;102021.13;5293302;28;19920;-81
2023/06/03 11:22:37;;;;;;;3.20;0.88;;;;;;;31.48;23.16;102034.59;5294772;28;20032;-81
2023/06/03 11:25:30;;;;;;;1.83;1.08;;;;;;;31.69;24.53;102037.66;5294248;28;20035;-80
2023/06/03 11:28:28;;;;;;;1.75;0.55;;;;;;;31.85;24.26;102034.00;5301078;28;20040;-79
2023/06/03 11:31:02;;;;;;;2.85;0.80;;;;;;;31.35;22.52;102026.69;5305003;28;20034;-81
2023/06/03 11:33:33;;;;;;;2.30;1.13;;;;;;;31.02;22.30;102026.50;5302926;28;20048;-81
2023/06/03 11:36:43;;;;;;;2.28;0.77;;;;;;;31.51;23.63;102034.13;5301796;28;20032;-80
2023/06/03 11:39:15;;;;;;;1.23;0.63;;;;;;;31.21;22.10;102018.78;5298362;28;20043;-81
2023/06/03 11:41:59;;;;;;;0.93;0.60;;;;;;;31.21;23.04;102020.72;5303630;28;20119;-80
2023/06/03 11:44:31;;;;;;;3.10;0.82;;;;;;;31.01;22.35;102018.47;5297171;28;20028;-82
2023/06/03 11:47:04;;;;;;;3.90;0.85;;;;;;;31.16;22.29;102029.75;5296142;28;20024;-82
2023/06/03 11:49:38;;;;;;;4.10;0.90;;;;;;;31.53;23.32;102031.13;5294850;28;20100;-81